createdAt,value
2017-10-28T00:01:09.977Z,10.63
2017-10-28T00:03:38.340Z,12.10
2017-10-28T00:06:06.990Z,11.17
2017-10-28T00:08:35.705Z,12.23
2017-10-28T00:11:03.392Z,11.37
2017-10-28T00:13:31.092Z,11.43
2017-10-28T00:15:59.527Z,11.80
2017-10-28T00:18:27.160Z,11.07
2017-10-28T00:20:54.986Z,11.00
2017-10-28T00:23:23.522Z,11.47
2017-10-28T00:25:51.158Z,11.30
2017-10-28T00:28:18.809Z,11.60
2017-10-28T00:33:55.641Z,11.83
2017-10-28T00:36:23.345Z,11.63
2017-10-28T00:38:51.774Z,11.60
2017-10-28T00:41:19.526Z,11.47
2017-10-28T00:43:48.149Z,11.37
2017-10-28T00:46:15.808Z,11.50
2017-10-28T00:48:43.491Z,11.90
2017-10-28T00:51:11.889Z,12.60
2017-10-28T00:53:39.531Z,12.40
2017-10-28T00:56:07.949Z,13.37
2017-10-28T00:58:36.303Z,12.60
2017-10-28T01:01:04.087Z,12.23
2017-10-28T01:03:31.743Z,12.03
2017-10-28T01:05:59.468Z,12.90
2017-10-28T01:08:27.897Z,12.47
2017-10-28T01:10:55.649Z,12.20
2017-10-28T01:13:23.327Z,11.40
2017-10-28T01:15:51.089Z,12.40
2017-10-28T01:18:18.855Z,11.50
2017-10-28T01:20:46.528Z,12.60
2017-10-28T01:23:14.331Z,12.87
2017-10-28T01:25:42.785Z,12.20
2017-10-28T01:28:10.424Z,12.97
2017-10-28T01:30:38.118Z,13.37
2017-10-28T01:33:06.516Z,12.37
2017-10-28T01:35:34.304Z,13.03
2017-10-28T01:38:01.932Z,12.57
2017-10-28T01:40:30.368Z,12.87
2017-10-28T01:42:58.020Z,12.70
2017-10-28T01:45:25.688Z,13.20
2017-10-28T01:47:53.567Z,12.20
2017-10-28T01:50:21.233Z,12.13
2017-10-28T01:52:49.854Z,12.40
2017-10-28T01:55:17.594Z,12.40
2017-10-28T01:57:45.974Z,12.77
2017-10-28T02:00:13.650Z,11.90
2017-10-28T02:02:41.291Z,12.00
2017-10-28T02:05:09.763Z,11.73
2017-10-28T02:07:38.152Z,11.87
2017-10-28T02:10:06.629Z,13.70
2017-10-28T02:12:35.304Z,13.47
2017-10-28T02:15:03.747Z,12.73
2017-10-28T02:17:31.440Z,12.00
2017-10-28T02:19:59.899Z,13.00
2017-10-28T02:22:27.775Z,11.70
2017-10-28T02:24:55.415Z,13.73
2017-10-28T02:27:23.071Z,12.80
2017-10-28T02:29:50.818Z,12.80
2017-10-28T02:32:18.472Z,12.90
2017-10-28T02:34:46.132Z,13.47
2017-10-28T02:37:13.778Z,13.13
2017-10-28T02:39:41.498Z,13.80
2017-10-28T02:42:09.139Z,14.33
2017-10-28T02:44:36.803Z,11.50
2017-10-28T02:47:04.457Z,14.40
2017-10-28T02:49:32.093Z,11.90
2017-10-28T02:51:59.769Z,13.57
2017-10-28T02:54:27.392Z,13.27
2017-10-28T02:56:55.092Z,13.47
2017-10-28T02:59:22.742Z,12.47
2017-10-28T03:01:50.408Z,15.20
2017-10-28T03:04:18.084Z,13.20
2017-10-28T03:06:45.743Z,14.23
2017-10-28T03:09:13.454Z,14.57
2017-10-28T03:11:41.148Z,14.30
2017-10-28T03:14:09.660Z,14.67
2017-10-28T03:16:37.310Z,14.77
2017-10-28T03:19:04.944Z,14.50
2017-10-28T03:21:32.693Z,14.60
2017-10-28T03:24:00.380Z,14.60
2017-10-28T03:26:28.058Z,13.00
2017-10-28T03:28:55.695Z,14.23
2017-10-28T03:31:23.369Z,14.90
2017-10-28T03:33:51.053Z,15.47
2017-10-28T03:36:18.699Z,13.73
2017-10-28T03:38:46.405Z,15.50
2017-10-28T03:41:14.048Z,14.90
2017-10-28T03:43:42.463Z,14.77
2017-10-28T03:46:10.112Z,13.97
2017-10-28T03:48:37.924Z,13.63
2017-10-28T03:51:05.560Z,15.17
2017-10-28T03:53:33.168Z,15.63
2017-10-28T03:56:01.587Z,14.80
2017-10-28T03:58:29.266Z,14.30
2017-10-28T04:00:56.943Z,13.80
2017-10-28T04:03:24.606Z,13.47
2017-10-28T04:05:52.292Z,13.67
2017-10-28T04:08:19.926Z,14.87
2017-10-28T04:10:47.586Z,14.40
2017-10-28T04:13:15.299Z,13.80
2017-10-28T04:15:42.956Z,13.80
2017-10-28T04:18:10.615Z,14.20
2017-10-28T04:20:38.252Z,13.67
2017-10-28T04:23:06.832Z,16.00
2017-10-28T04:25:35.227Z,15.33
2017-10-28T04:28:02.924Z,13.90
2017-10-28T04:30:30.596Z,15.03
2017-10-28T04:32:58.258Z,14.67
2017-10-28T04:35:26.008Z,15.57
2017-10-28T04:37:53.680Z,14.20
2017-10-28T04:40:21.369Z,16.20
2017-10-28T04:42:49.756Z,14.70
2017-10-28T04:45:18.168Z,14.93
2017-10-28T04:47:46.600Z,14.70
2017-10-28T04:50:15.004Z,16.20
2017-10-28T04:52:42.681Z,15.87
2017-10-28T04:55:10.317Z,16.00
2017-10-28T04:57:38.009Z,15.40
2017-10-28T05:00:05.690Z,17.13
2017-10-28T05:02:33.353Z,17.03
2017-10-28T05:05:01.039Z,14.63
2017-10-28T05:07:28.667Z,16.00
2017-10-28T05:09:56.360Z,16.73
2017-10-28T05:12:24.757Z,16.00
2017-10-28T05:14:52.510Z,15.33
2017-10-28T05:17:20.140Z,16.13
2017-10-28T05:19:47.800Z,14.40
2017-10-28T05:22:15.444Z,16.23
2017-10-28T05:24:43.087Z,16.43
2017-10-28T05:27:10.743Z,15.70
2017-10-28T05:29:38.362Z,15.30
2017-10-28T05:32:06.812Z,15.13
2017-10-28T05:34:34.432Z,16.53
2017-10-28T05:37:02.066Z,16.07
2017-10-28T05:39:29.731Z,14.70
2017-10-28T05:41:58.155Z,13.53
2017-10-28T05:44:25.840Z,15.70
2017-10-28T05:46:53.591Z,15.23
2017-10-28T05:49:21.331Z,15.80
2017-10-28T05:51:48.982Z,15.80
2017-10-28T05:54:16.611Z,15.40
2017-10-28T05:56:45.044Z,14.97
2017-10-28T05:59:12.697Z,16.00
2017-10-28T06:01:40.376Z,15.53
2017-10-28T06:04:08.025Z,15.20
2017-10-28T06:06:35.738Z,15.13
2017-10-28T06:09:04.203Z,15.10
2017-10-28T06:11:32.618Z,15.07
2017-10-28T06:14:00.314Z,15.60
2017-10-28T06:16:27.954Z,14.40
2017-10-28T06:18:55.629Z,15.27
2017-10-28T06:21:23.268Z,14.80
2017-10-28T06:23:52.162Z,15.67
2017-10-28T06:26:19.795Z,14.03
2017-10-28T06:28:47.469Z,16.33
2017-10-28T06:31:15.219Z,15.50
2017-10-28T06:33:42.856Z,15.30
2017-10-28T06:36:10.509Z,15.07
2017-10-28T06:38:38.912Z,15.10
2017-10-28T06:41:06.627Z,16.10
2017-10-28T06:43:34.269Z,14.53
2017-10-28T06:46:01.885Z,13.93
2017-10-28T06:48:29.535Z,15.63
2017-10-28T06:50:57.942Z,14.10
2017-10-28T06:53:25.595Z,13.67
2017-10-28T06:55:53.233Z,15.83
2017-10-28T06:58:20.951Z,14.30
2017-10-28T07:00:48.582Z,13.90
2017-10-28T07:03:16.200Z,13.30
2017-10-28T07:05:43.930Z,13.07
2017-10-28T07:08:11.625Z,13.50
2017-10-28T07:10:40.097Z,13.97
2017-10-28T07:13:07.807Z,13.20
2017-10-28T07:15:35.517Z,11.90
2017-10-28T07:18:03.268Z,13.23
2017-10-28T07:20:30.899Z,14.23
2017-10-28T07:22:58.521Z,13.03
2017-10-28T07:25:26.974Z,12.60
2017-10-28T07:27:54.607Z,13.60
2017-10-28T07:30:22.213Z,13.33
2017-10-28T07:32:50.637Z,12.80
2017-10-28T07:35:18.263Z,12.03
2017-10-28T07:37:46.712Z,11.60
2017-10-28T07:40:14.455Z,12.93
2017-10-28T07:42:42.094Z,13.03
2017-10-28T07:45:09.734Z,11.47
2017-10-28T07:47:37.372Z,12.27
2017-10-28T07:50:05.054Z,12.17
2017-10-28T07:52:32.715Z,10.90
2017-10-28T07:55:00.512Z,11.00
2017-10-28T07:57:28.136Z,12.30
2017-10-28T07:59:55.755Z,11.07
2017-10-28T08:02:23.400Z,11.57
2017-10-28T08:04:51.037Z,11.73
2017-10-28T08:07:18.717Z,12.57
2017-10-28T08:09:46.392Z,11.23
2017-10-28T08:12:14.095Z,11.00
2017-10-28T08:14:41.774Z,10.87
2017-10-28T08:17:09.500Z,11.13
2017-10-28T08:19:37.951Z,11.27
2017-10-28T08:22:05.635Z,10.23
2017-10-28T08:24:34.092Z,11.10
2017-10-28T08:27:01.764Z,11.17
2017-10-28T08:29:29.431Z,10.60
2017-10-28T08:31:57.092Z,10.87
2017-10-28T08:34:25.544Z,11.70
2017-10-28T08:36:53.253Z,10.60
2017-10-28T08:39:20.908Z,10.70
2017-10-28T08:41:48.555Z,11.67
2017-10-28T08:44:16.944Z,11.77
2017-10-28T08:46:45.424Z,11.20
2017-10-28T08:49:13.064Z,9.90
2017-10-28T08:51:42.279Z,10.40
2017-10-28T08:54:10.715Z,10.17
2017-10-28T08:56:38.388Z,10.77
2017-10-28T08:59:06.036Z,10.80
2017-10-28T09:01:33.680Z,10.43
2017-10-28T09:04:01.342Z,12.13
2017-10-28T09:06:28.964Z,11.37
2017-10-28T09:08:56.640Z,11.47
2017-10-28T09:11:24.288Z,9.83
2017-10-28T09:13:51.978Z,10.60
2017-10-28T09:16:19.644Z,11.33
2017-10-28T09:18:47.297Z,10.80
2017-10-28T09:21:15.733Z,10.93
2017-10-28T09:23:44.142Z,10.30
2017-10-28T09:26:11.872Z,11.70
2017-10-28T09:28:40.253Z,10.93
2017-10-28T09:31:07.941Z,10.67
2017-10-28T09:33:35.570Z,11.27
2017-10-28T09:36:03.952Z,9.70
2017-10-28T09:38:32.402Z,9.70
2017-10-28T09:41:00.037Z,10.20
2017-10-28T09:43:29.810Z,11.27
2017-10-28T09:45:57.611Z,9.90
2017-10-28T09:48:25.606Z,10.63
2017-10-28T09:50:53.310Z,11.00
2017-10-28T09:53:21.202Z,10.20
2017-10-28T09:55:49.051Z,10.03
2017-10-28T09:58:17.160Z,9.90
2017-10-28T10:00:44.907Z,9.53
2017-10-28T10:03:13.095Z,9.50
2017-10-28T10:05:41.128Z,10.70
2017-10-28T10:08:09.739Z,8.97
2017-10-28T10:10:38.241Z,9.60
2017-10-28T10:13:06.308Z,10.23
2017-10-28T10:15:34.244Z,8.70
2017-10-28T10:18:01.899Z,8.60
2017-10-28T10:20:31.050Z,9.10
2017-10-28T10:22:58.735Z,8.10
2017-10-28T10:25:26.365Z,7.90
2017-10-28T10:27:54.782Z,8.13
2017-10-28T10:30:22.681Z,9.03
2017-10-28T10:32:51.209Z,7.97
2017-10-28T10:35:18.900Z,6.60
2017-10-28T10:37:46.560Z,7.63
2017-10-28T10:40:14.431Z,8.10
2017-10-28T10:42:42.336Z,6.53
2017-10-28T10:45:10.839Z,7.33
2017-10-28T10:47:38.546Z,7.00
2017-10-28T10:50:07.034Z,6.37
2017-10-28T10:52:35.601Z,7.20
2017-10-28T10:55:05.450Z,6.57
2017-10-28T10:57:34.343Z,5.40
2017-10-28T11:00:02.737Z,6.60
2017-10-28T11:02:31.763Z,6.50
2017-10-28T11:04:59.458Z,7.10
2017-10-28T11:07:27.991Z,6.13
2017-10-28T11:09:56.010Z,7.27
2017-10-28T11:12:23.847Z,6.43
2017-10-28T11:14:51.812Z,6.17
2017-10-28T11:17:19.622Z,6.27
2017-10-28T11:19:47.412Z,6.20
2017-10-28T11:22:23.636Z,6.10
2017-10-28T11:24:52.214Z,5.80
2017-10-28T11:27:20.165Z,6.23
2017-10-28T11:29:47.981Z,6.57
2017-10-28T11:32:15.840Z,5.40
2017-10-28T11:34:43.526Z,5.47
2017-10-28T11:37:11.845Z,5.57
2017-10-28T11:39:39.573Z,6.07
2017-10-28T11:42:07.211Z,6.40
2017-10-28T11:44:34.886Z,5.77
2017-10-28T11:47:02.511Z,6.20
2017-10-28T11:49:30.225Z,6.00
2017-10-28T11:51:57.853Z,5.70
2017-10-28T11:54:25.570Z,6.27
2017-10-28T11:56:53.995Z,5.50
2017-10-28T11:59:21.620Z,5.57
2017-10-28T12:01:50.065Z,5.70
2017-10-28T12:04:17.739Z,6.60
2017-10-28T12:06:45.394Z,6.97
2017-10-28T12:09:13.313Z,5.93
2017-10-28T12:11:40.969Z,6.10
2017-10-28T12:14:08.628Z,5.80
2017-10-28T12:16:36.304Z,6.30
2017-10-28T12:19:04.011Z,5.90
2017-10-28T12:21:31.711Z,5.07
2017-10-28T12:24:00.242Z,6.00
2017-10-28T12:26:28.639Z,5.73
2017-10-28T12:28:56.256Z,6.17
2017-10-28T12:31:23.909Z,6.17
2017-10-28T12:33:51.572Z,6.80
2017-10-28T12:36:19.446Z,5.83
2017-10-28T12:38:47.282Z,6.70
2017-10-28T12:41:14.970Z,5.90
2017-10-28T12:43:42.587Z,6.90
2017-10-28T12:46:10.192Z,6.00
2017-10-28T12:48:37.871Z,6.27
2017-10-28T12:51:05.481Z,5.93
2017-10-28T12:53:33.132Z,6.07
2017-10-28T12:56:00.736Z,6.40
2017-10-28T12:58:28.408Z,5.80
2017-10-28T13:00:56.063Z,5.70
2017-10-28T13:03:23.730Z,5.60
2017-10-28T13:05:51.397Z,5.37
2017-10-28T13:08:19.787Z,4.60
2017-10-28T13:10:48.239Z,5.33
2017-10-28T13:13:15.848Z,5.30
2017-10-28T13:15:44.134Z,6.63
2017-10-28T13:18:11.802Z,5.63
2017-10-28T13:20:39.445Z,5.10
2017-10-28T13:23:07.090Z,5.30
2017-10-28T13:25:34.723Z,5.73
2017-10-28T13:28:02.411Z,5.77
2017-10-28T13:30:30.025Z,5.60
2017-10-28T13:32:57.695Z,5.30
2017-10-28T13:35:25.316Z,5.23
2017-10-28T13:37:52.944Z,5.20
2017-10-28T13:40:21.450Z,5.10
2017-10-28T13:42:49.132Z,5.73
2017-10-28T13:45:16.873Z,5.00
2017-10-28T13:47:45.325Z,5.60
2017-10-28T13:50:13.911Z,4.63
2017-10-28T13:52:41.549Z,5.10
2017-10-28T13:55:09.176Z,5.00
2017-10-28T13:57:36.842Z,5.03
2017-10-28T14:00:04.564Z,5.30
2017-10-28T14:02:32.213Z,5.20
2017-10-28T14:04:59.823Z,5.20
2017-10-28T14:07:27.472Z,5.10
2017-10-28T14:09:55.175Z,5.37
2017-10-28T14:12:23.557Z,5.10
2017-10-28T14:14:51.206Z,6.07
2017-10-28T14:17:18.884Z,5.17
2017-10-28T14:19:47.330Z,5.67
2017-10-28T14:22:14.956Z,5.57
2017-10-28T14:24:42.567Z,5.70
2017-10-28T14:27:10.995Z,5.87
2017-10-28T14:29:38.621Z,6.50
2017-10-28T14:32:07.042Z,5.53
2017-10-28T14:34:34.660Z,6.10
2017-10-28T14:37:03.117Z,6.13
2017-10-28T14:39:30.764Z,5.60
2017-10-28T14:41:58.395Z,6.40
2017-10-28T14:44:26.070Z,6.10
2017-10-28T14:46:53.692Z,6.33
2017-10-28T14:49:21.371Z,5.90
2017-10-28T14:51:48.991Z,6.17
2017-10-28T14:54:17.432Z,5.83
2017-10-28T14:56:45.034Z,5.17
2017-10-28T14:59:13.471Z,5.70
2017-10-28T15:01:41.157Z,5.77
2017-10-28T15:04:09.618Z,6.40
2017-10-28T15:06:37.337Z,6.10
2017-10-28T15:09:05.055Z,5.83
2017-10-28T15:11:32.706Z,6.00
2017-10-28T15:14:01.108Z,5.97
2017-10-28T15:16:29.495Z,5.00
2017-10-28T15:18:57.167Z,6.27
2017-10-28T15:21:24.788Z,6.07
2017-10-28T15:23:52.442Z,5.80
2017-10-28T15:26:20.084Z,5.97
2017-10-28T15:28:48.229Z,5.43
2017-10-28T15:31:15.850Z,6.40
2017-10-28T15:33:44.256Z,7.00
2017-10-28T15:36:11.945Z,6.33
2017-10-28T15:38:39.607Z,6.33
2017-10-28T15:41:07.269Z,6.33
2017-10-28T15:43:34.913Z,6.40
2017-10-28T15:46:02.702Z,6.80
2017-10-28T15:48:30.364Z,5.90
2017-10-28T15:50:57.963Z,7.00
2017-10-28T15:53:26.379Z,6.07
2017-10-28T15:55:53.986Z,5.90
2017-10-28T15:58:22.404Z,6.70
2017-10-28T16:00:52.302Z,6.07
2017-10-28T16:03:23.597Z,6.47
2017-10-28T16:05:52.871Z,6.30
2017-10-28T16:08:21.592Z,6.57
2017-10-28T16:10:53.065Z,5.70
2017-10-28T16:13:23.266Z,5.43
2017-10-28T16:15:52.015Z,5.63
2017-10-28T16:18:20.822Z,5.60
2017-10-28T16:20:49.317Z,6.87
2017-10-28T16:23:18.718Z,5.50
2017-10-28T16:25:46.378Z,7.40
2017-10-28T16:28:14.026Z,5.80
2017-10-28T16:30:41.680Z,5.90
2017-10-28T16:33:09.317Z,6.40
2017-10-28T16:35:36.927Z,5.90
2017-10-28T16:38:05.375Z,6.10
2017-10-28T16:40:33.006Z,5.70
2017-10-28T16:43:00.652Z,6.50
2017-10-28T16:48:00.140Z,6.07
2017-10-28T16:50:28.553Z,7.30
2017-10-28T16:52:56.937Z,7.13
2017-10-28T16:55:25.433Z,6.60
2017-10-28T16:57:53.185Z,5.97
2017-10-28T17:00:20.955Z,6.60
2017-10-28T17:02:48.604Z,6.87
2017-10-28T17:05:16.232Z,6.90
2017-10-28T17:07:44.654Z,7.00
2017-10-28T17:10:12.279Z,6.90
2017-10-28T17:12:39.968Z,5.80
2017-10-28T17:15:07.611Z,7.13
2017-10-28T17:17:35.229Z,7.10
2017-10-28T17:20:02.879Z,7.03
2017-10-28T17:22:30.512Z,6.43
2017-10-28T17:24:58.159Z,7.10
2017-10-28T17:27:25.812Z,6.33
2017-10-28T17:29:53.477Z,6.57
2017-10-28T17:32:21.182Z,7.10
2017-10-28T17:34:48.950Z,6.97
2017-10-28T17:37:17.516Z,6.30
2017-10-28T17:39:45.180Z,6.20
2017-10-28T17:42:12.847Z,7.13
2017-10-28T17:44:40.507Z,6.00
2017-10-28T17:47:08.208Z,6.67
2017-10-28T17:49:35.836Z,5.60
2017-10-28T17:52:03.467Z,5.60
2017-10-28T17:54:31.114Z,5.30
2017-10-28T17:56:58.764Z,5.20
2017-10-28T17:59:26.640Z,4.50
2017-10-28T18:01:54.424Z,4.90
2017-10-28T18:04:22.408Z,4.90
2017-10-28T18:06:50.220Z,4.67
2017-10-28T18:09:18.004Z,4.93
2017-10-28T18:11:45.901Z,5.13
2017-10-28T18:14:13.724Z,4.43
2017-10-28T18:16:41.518Z,4.53
2017-10-28T18:19:10.049Z,4.37
2017-10-28T18:21:37.859Z,4.73
2017-10-28T18:24:05.483Z,4.80
2017-10-28T18:26:33.116Z,4.20
2017-10-28T18:29:00.879Z,4.33
2017-10-28T18:31:29.351Z,4.47
2017-10-28T18:33:57.755Z,3.90
2017-10-28T18:36:25.388Z,3.60
2017-10-28T18:38:53.844Z,4.30
2017-10-28T18:41:21.503Z,4.47
2017-10-28T18:43:49.204Z,3.03
2017-10-28T18:46:17.003Z,3.37
2017-10-28T18:48:44.719Z,3.67
2017-10-28T18:51:12.458Z,3.30
2017-10-28T18:53:40.958Z,3.20
2017-10-28T18:56:09.471Z,3.13
2017-10-28T18:58:37.177Z,3.50
2017-10-28T19:01:05.080Z,2.60
2017-10-28T19:03:32.816Z,3.27
2017-10-28T19:06:01.199Z,3.20
2017-10-28T19:08:28.908Z,3.20
2017-10-28T19:10:56.580Z,3.00
2017-10-28T19:13:24.324Z,3.00
2017-10-28T19:15:52.026Z,3.13
2017-10-28T19:18:19.820Z,2.70
2017-10-28T19:20:47.669Z,2.70
2017-10-28T19:23:16.157Z,2.83
2017-10-28T19:25:44.670Z,2.63
2017-10-28T19:28:12.381Z,2.27
2017-10-28T19:30:40.148Z,2.80
2017-10-28T19:33:08.638Z,3.10
2017-10-28T19:35:37.143Z,2.30
2017-10-28T19:38:04.909Z,2.80
2017-10-28T19:40:32.573Z,2.20
2017-10-28T19:43:00.273Z,2.17
2017-10-28T19:45:28.192Z,2.07
2017-10-28T19:47:56.174Z,2.20
2017-10-28T19:50:24.944Z,2.03
2017-10-28T19:52:52.667Z,2.20
2017-10-28T19:55:21.119Z,2.60
2017-10-28T19:57:48.775Z,2.20
2017-10-28T20:00:16.494Z,2.30
2017-10-28T20:02:44.194Z,2.43
2017-10-28T20:05:11.916Z,2.00
2017-10-28T20:07:39.640Z,2.17
2017-10-28T20:10:08.118Z,2.00
2017-10-28T20:12:36.751Z,1.77
2017-10-28T20:15:04.498Z,1.83
2017-10-28T20:17:32.369Z,1.60
2017-10-28T20:20:00.100Z,2.00
2017-10-28T20:22:28.518Z,1.70
2017-10-28T20:24:56.156Z,2.10
2017-10-28T20:27:23.821Z,1.90
2017-10-28T20:29:51.585Z,2.20
2017-10-28T20:32:19.193Z,2.73
2017-10-28T20:34:46.815Z,2.13
2017-10-28T20:37:14.469Z,2.40
2017-10-28T20:39:42.321Z,2.30
2017-10-28T20:42:10.459Z,2.43
2017-10-28T20:44:40.392Z,2.80
2017-10-28T20:47:09.799Z,2.30
2017-10-28T20:49:39.393Z,2.20
2017-10-28T20:52:08.004Z,2.30
2017-10-28T20:54:37.194Z,2.60
2017-10-28T20:57:05.391Z,2.80
2017-10-28T20:59:34.524Z,3.30
2017-10-28T21:02:03.076Z,3.07
2017-10-28T21:04:31.307Z,3.30
2017-10-28T21:07:01.733Z,3.20
2017-10-28T21:09:30.814Z,2.67
2017-10-28T21:11:58.939Z,2.90
2017-10-28T21:14:27.281Z,2.83
2017-10-28T21:16:55.034Z,2.97
2017-10-28T21:19:22.910Z,3.07
2017-10-28T21:21:51.381Z,2.77
2017-10-28T21:24:19.168Z,3.03
2017-10-28T21:26:47.309Z,2.90
2017-10-28T21:29:16.019Z,3.53
2017-10-28T21:31:44.129Z,3.20
2017-10-28T21:34:12.006Z,3.40
2017-10-28T21:36:39.760Z,3.20
2017-10-28T21:39:07.955Z,2.90
2017-10-28T21:41:36.139Z,3.57
2017-10-28T21:44:04.702Z,3.50
2017-10-28T21:46:32.405Z,2.80
2017-10-28T21:49:00.077Z,3.10
2017-10-28T21:51:27.716Z,3.70
2017-10-28T21:53:55.363Z,2.90
2017-10-28T21:56:23.768Z,2.90
2017-10-28T21:58:51.389Z,3.33
2017-10-28T22:01:19.083Z,3.47
2017-10-28T22:03:46.712Z,2.70
2017-10-28T22:06:15.106Z,3.10
2017-10-28T22:08:42.756Z,3.70
2017-10-28T22:11:11.152Z,3.10
2017-10-28T22:13:38.814Z,3.23
2017-10-28T22:16:06.439Z,3.57
2017-10-28T22:18:34.114Z,3.70
2017-10-28T22:21:02.568Z,3.50
2017-10-28T22:23:30.183Z,3.60
2017-10-28T22:25:57.832Z,3.07
2017-10-28T22:28:25.459Z,3.57
2017-10-28T22:30:53.105Z,3.43
2017-10-28T22:33:20.734Z,3.70
2017-10-28T22:35:48.436Z,4.13
2017-10-28T22:38:16.173Z,4.00
2017-10-28T22:40:43.823Z,3.90
2017-10-28T22:43:11.487Z,4.60
2017-10-28T22:45:39.088Z,4.23
2017-10-28T22:48:07.497Z,4.10
2017-10-28T22:50:35.188Z,4.23
2017-10-28T22:53:02.946Z,4.23
2017-10-28T22:55:30.621Z,4.57
2017-10-28T22:57:58.270Z,4.17
2017-10-28T23:00:25.944Z,4.10
2017-10-28T23:02:53.567Z,4.47
2017-10-28T23:05:21.202Z,4.77
2017-10-28T23:07:48.819Z,5.03
2017-10-28T23:10:16.472Z,4.70
2017-10-28T23:12:44.076Z,4.37
2017-10-28T23:15:12.483Z,5.27
2017-10-28T23:17:40.146Z,4.93
2017-10-28T23:20:07.770Z,5.30
2017-10-28T23:22:36.168Z,4.50
2017-10-28T23:25:03.783Z,5.07
2017-10-28T23:27:31.442Z,4.80
2017-10-28T23:29:59.048Z,6.07
2017-10-28T23:32:26.737Z,5.03
2017-10-28T23:34:54.403Z,5.07
2017-10-28T23:37:22.035Z,6.40
2017-10-28T23:39:49.729Z,5.50
2017-10-28T23:42:17.376Z,5.83
2017-10-28T23:44:45.055Z,5.90
2017-10-28T23:47:12.695Z,6.57
2017-10-28T23:49:41.186Z,6.37
2017-10-28T23:52:08.844Z,5.70
2017-10-28T23:54:36.464Z,6.33
2017-10-28T23:57:04.132Z,6.60
2017-10-28T23:59:31.756Z,6.30
